Latest Weather Observations for Cape Bruny AWS

IDT60801

Issued at 1:05 pm EST Tuesday 16 September 2014 (issued every 30 minutes, with the page automatically refreshed every 10 minutes)

About weather observations | Map of weather stations | Latest weather observations for TAS | Other Formats
Station Details ID: 094198 Name: CAPE BRUNY (CAPE BRUNY) Lat: -43.49 Lon: 147.14 Height: 59.7 m
Data from the previous 72 hours. | See also: Recent months at Cape Bruny AWS
Date/Time
EST
Temp
°C
App
Temp
°C
Dew
Point
Rel
Hum
%
Delta-T
°C
Wind Press
QNH
hPa
Press
MSL
hPa
Rain
since 9 am
mm
Dir
 
Spd
km/h
Gust
km/h
Spd
kts
Gust
kts
16/01:00pm 13.8 9.0 4.7 54 4.2 ESE 19 22 10 12 1009.4 1009.4 0.0
16/12:30pm 13.3 8.4 5.2 58 3.8 ESE 20 24 11 13 1009.9 1010.0 0.0
16/12:00pm 13.2 8.4 4.4 55 4.0 ESE 19 20 10 11 1010.6 1010.7 0.0
16/11:30am 14.0 10.8 4.9 54 4.2 NE 11 15 6 8 1011.0 1011.1 0.0
16/11:00am 13.3 10.0 4.5 55 4.1 NE 11 17 6 9 1011.4 1011.5 0.0
16/10:30am 12.7 9.1 4.9 59 3.6 N 13 19 7 10 1011.8 1011.9 0.0
16/10:00am 10.7 5.7 4.6 66 2.8 N 20 26 11 14 1012.1 1012.2 0.0
16/09:30am 9.8 4.5 5.2 73 2.1 N 22 30 12 16 1012.3 1012.4 0.0
16/09:00am 9.0 3.3 4.8 75 1.9 N 24 32 13 17 1012.5 1012.6 0.0
16/08:30am 7.9 1.7 4.1 77 1.7 N 26 32 14 17 1012.6 1012.7 0.0
16/08:00am 7.0 1.2 4.3 83 1.2 N 24 33 13 18 1012.7 1012.8 0.0
16/07:30am 6.5 1.2 4.8 89 0.7 N 22 30 12 16 1012.6 1012.7 0.0
16/07:00am 6.0 0.5 4.2 88 0.8 N 22 30 12 16 1012.5 1012.6 0.0
16/06:30am 5.9 0.0 4.1 88 0.8 N 24 30 13 16 1012.5 1012.6 0.0
16/06:00am 6.0 0.2 4.3 89 0.7 N 24 32 13 17 1012.5 1012.6 0.0
16/05:30am 6.1 0.3 4.3 88 0.8 N 24 30 13 16 1012.4 1012.5 0.0
16/05:00am 6.3 0.1 4.5 88 0.8 N 26 32 14 17 1012.4 1012.5 0.0
16/04:30am 6.4 0.6 4.6 88 0.8 N 24 35 13 19 1012.4 1012.5 0.0
16/04:00am 6.4 1.0 4.6 88 0.8 N 22 30 12 16 1012.3 1012.4 0.0
16/03:30am 6.4 1.3 4.2 86 0.9 N 20 26 11 14 1012.5 1012.6 0.0
16/03:00am 6.3 1.8 4.3 87 0.9 N 17 26 9 14 1012.7 1012.8 0.0
16/02:30am 6.5 2.0 4.2 85 1.0 N 17 22 9 12 1013.0 1013.1 0.0
16/02:00am 6.4 2.7 4.4 87 0.9 N 13 20 7 11 1013.4 1013.5 0.0
16/01:30am 6.2 2.9 4.7 90 0.7 N 11 15 6 8 1013.7 1013.8 0.0
16/01:00am 5.6 2.6 4.1 90 0.6 NNE 9 13 5 7 1014.2 1014.3 0.0
16/12:30am 5.7 2.7 4.2 90 0.6 N 9 11 5 6 1014.6 1014.7 0.0
16/12:00am 5.8 2.8 4.1 89 0.7 N 9 13 5 7 1014.8 1014.9 0.0
 
Date/Time
EST
Temp
°C
App
Temp
°C
Dew
Point
Rel
Hum
%
Delta-T
°C
Wind Press
QNH
hPa
Press
MSL
hPa
Rain
since 9 am
mm
Dir
 
Spd
km/h
Gust
km/h
Spd
kts
Gust
kts
15/11:30pm 5.4 1.5 3.6 88 0.8 N 13 13 7 7 1015.1 1015.2 0.0
15/11:00pm 5.3 2.1 3.0 85 0.9 N 9 11 5 6 1015.5 1015.6 0.0
15/10:30pm 5.4 1.7 2.2 80 1.3 N 11 13 6 7 1015.7 1015.8 0.0
15/10:00pm 5.9 2.1 2.0 76 1.6 NNE 11 13 6 7 1015.7 1015.8 0.0
15/09:30pm 6.3 2.9 2.0 74 1.7 NNE 9 11 5 6 1016.1 1016.2 0.0
15/09:00pm 7.3 3.7 2.8 73 1.9 NE 11 13 6 7 1016.0 1016.1 0.0
15/08:30pm 7.4 3.8 3.1 74 1.8 NE 11 15 6 8 1016.3 1016.4 0.0
15/08:00pm 6.7 3.1 3.0 77 1.5 NNE 11 15 6 8 1016.4 1016.5 0.0
15/07:30pm 7.4 4.7 2.5 71 2.0 E 6 7 3 4 1016.4 1016.5 0.0
15/07:00pm 7.7 4.8 2.8 71 2.1 E 7 11 4 6 1016.3 1016.4 0.0
15/06:30pm 8.0 5.1 2.7 69 2.2 SSE 7 15 4 8 1016.3 1016.4 0.0
15/06:00pm 8.3 5.0 2.5 67 2.4 SE 9 15 5 8 1016.2 1016.3 0.0
15/05:30pm 8.9 5.1 2.0 62 2.9 S 11 13 6 7 1016.0 1016.1 0.0
15/05:00pm 9.8 6.6 3.1 63 2.9 S 9 15 5 8 1016.2 1016.3 0.0
15/04:30pm 10.3 6.3 2.9 60 3.2 S 13 17 7 9 1016.1 1016.2 0.0
15/04:00pm 10.5 6.2 3.3 61 3.1 S 15 20 8 11 1016.2 1016.3 0.0
15/03:30pm 10.6 6.0 3.9 63 3.0 S 17 26 9 14 1016.3 1016.4 0.0
15/03:00pm 10.8 6.5 3.1 59 3.4 S 15 22 8 12 1016.4 1016.5 0.0
15/02:30pm 11.2 6.9 3.3 58 3.5 S 15 20 8 11 1016.8 1016.9 0.0
15/02:00pm 11.4 7.1 3.2 57 3.6 S 15 20 8 11 1017.0 1017.1 0.0
15/01:30pm 10.9 5.4 2.0 54 3.8 SW 20 28 11 15 1017.2 1017.3 0.0
15/01:00pm 11.1 5.7 2.4 55 3.7 SW 20 26 11 14 1017.5 1017.6 0.0
15/12:30pm 11.0 5.5 1.8 53 3.9 W 20 26 11 14 1017.8 1017.9 0.0
15/12:00pm 11.1 5.7 2.2 54 3.8 WSW 20 26 11 14 1017.9 1018.0 0.0
15/11:30am 10.9 5.8 3.0 58 3.4 WSW 19 26 10 14 1018.3 1018.4 0.0
15/11:00am 10.3 5.8 2.4 58 3.4 SW 15 22 8 12 1018.3 1018.4 0.0
15/10:30am 9.9 5.5 2.7 61 3.1 SW 15 20 8 11 1018.4 1018.5 0.0
15/10:00am 9.9 5.0 2.0 58 3.3 W 17 22 9 12 1018.4 1018.5 0.0
15/09:30am 10.0 5.1 1.9 57 3.4 SW 17 26 9 14 1018.4 1018.5 0.0
15/09:00am 9.4 4.8 1.8 59 3.2 WSW 15 22 8 12 1018.3 1018.4 0.0
15/08:30am 9.5 4.7 2.6 62 2.9 WSW 17 26 9 14 1018.2 1018.3 0.0
15/08:00am 9.1 3.2 1.5 59 3.1 SW 22 32 12 17 1018.2 1018.3 0.0
15/07:30am 9.1 4.5 1.3 58 3.2 SW 15 24 8 13 1018.0 1018.1 0.0
15/07:00am 8.9 4.2 1.1 58 3.2 SSW 15 30 8 16 1018.0 1018.1 0.0
15/06:30am 9.0 3.1 1.9 61 3.0 SW 22 30 12 16 1017.9 1018.0 0.0
15/06:00am 8.9 2.5 0.9 57 3.2 WSW 24 32 13 17 1017.7 1017.8 0.0
15/05:30am 8.8 3.1 0.8 57 3.2 SW 20 32 11 17 1017.7 1017.8 0.0
15/05:00am 9.0 1.8 0.7 56 3.4 SW 28 39 15 21 1017.7 1017.8 0.0
15/04:30am 9.0 1.9 1.4 59 3.1 SW 28 43 15 23 1017.6 1017.7 0.0
15/04:00am 9.1 1.3 1.8 60 3.0 WSW 32 41 17 22 1017.5 1017.6 0.0
15/03:30am 9.0 2.1 2.6 64 2.7 W 28 35 15 19 1017.5 1017.6 0.0
15/03:00am 8.9 1.1 1.6 60 3.0 W 32 41 17 22 1017.6 1017.7 0.0
15/02:30am 9.0 1.2 1.9 61 3.0 W 32 43 17 23 1017.7 1017.8 0.0
15/02:00am 9.1 0.3 1.5 59 3.1 W 37 48 20 26 1017.9 1018.0 0.0
15/01:30am 9.3 1.3 1.7 59 3.2 WSW 33 43 18 23 1018.0 1018.1 0.0
15/01:00am 9.4 0.9 1.1 56 3.4 WSW 35 46 19 25 1018.3 1018.4 0.0
15/12:30am 9.3 0.7 0.2 53 3.7 W 35 46 19 25 1018.1 1018.2 0.0
15/12:00am 9.3 1.3 0.7 55 3.5 WSW 32 43 17 23 1018.2 1018.3 0.0
 
Date/Time
EST
Temp
°C
App
Temp
°C
Dew
Point
Rel
Hum
%
Delta-T
°C
Wind Press
QNH
hPa
Press
MSL
hPa
Rain
since 9 am
mm
Dir
 
Spd
km/h
Gust
km/h
Spd
kts
Gust
kts
14/11:30pm 9.5 1.1 1.7 58 3.3 W 35 41 19 22 1018.0 1018.1 0.0
14/11:14pm 9.1 1.5 0.3 54 3.5 SW 30 48 16 26 1018.1 1018.2 0.0
14/11:00pm 9.2 1.2 0.6 55 3.5 SW 32 48 17 26 1018.2 1018.3 0.0
14/10:30pm 9.1 1.6 1.0 57 3.3 SW 30 44 16 24 1018.3 1018.4 0.0
14/10:11pm 9.3 1.2 1.2 57 3.3 SW 33 52 18 28 1018.3 1018.4 0.0
14/10:00pm 9.3 1.4 1.2 57 3.3 SW 32 44 17 24 1018.3 1018.4 0.0
14/09:30pm 9.4 1.6 1.6 58 3.2 WSW 32 50 17 27 1018.1 1018.2 0.0
14/09:21pm 9.5 1.8 2.4 61 3.0 WSW 32 50 17 27 1018.1 1018.2 0.0
14/09:00pm 9.4 0.7 2.0 60 3.1 SW 37 50 20 27 1018.1 1018.2 0.0
14/08:30pm 9.4 0.2 3.6 67 2.5 WSW 41 50 22 27 1017.7 1017.8 0.0
14/08:00pm 9.6 0.7 3.1 64 2.8 WSW 39 54 21 29 1017.7 1017.8 0.0
14/07:43pm 9.4 -0.5 1.6 58 3.2 WSW 43 61 23 33 1017.5 1017.6 0.0
14/07:30pm 9.7 0.0 2.8 62 3.0 WSW 43 54 23 29 1017.5 1017.6 0.0
14/07:00pm 9.6 0.3 2.9 63 2.9 WSW 41 52 22 28 1017.3 1017.4 0.0
14/06:30pm 9.5 -0.8 2.6 62 2.9 WSW 46 57 25 31 1017.0 1017.1 0.0
14/06:00pm 9.1 0.4 3.9 70 2.3 W 39 50 21 27 1016.8 1016.9 0.0
14/05:30pm 9.5 -0.6 3.7 67 2.5 WSW 46 57 25 31 1016.5 1016.6 0.0
14/05:00pm 10.1 0.0 3.8 65 2.8 WSW 46 59 25 32 1016.3 1016.4 0.0
14/04:30pm 9.7 -1.1 4.3 69 2.4 W 50 69 27 37 1015.9 1016.0 0.0
14/04:04pm 9.3 -0.7 4.5 72 2.1 WSW 46 65 25 35 1016.2 1016.3 0.0
14/04:00pm 9.4 -1.9 3.2 65 2.7 WSW 52 65 28 35 1016.1 1016.2 0.0
14/03:45pm 10.7 1.5 3.7 62 3.1 W 41 61 22 33 1016.0 1016.1 0.0
14/03:30pm 10.9 1.4 5.0 67 2.7 W 44 57 24 31 1015.9 1016.0 0.0
14/03:11pm 10.1 0.0 3.8 65 2.8 W 46 67 25 36 1015.8 1015.9 0.0
14/03:00pm 10.9 1.8 3.9 62 3.1 W 41 56 22 30 1015.7 1015.8 0.0
14/02:37pm 11.2 1.2 4.4 63 3.1 W 46 65 25 35 1015.5 1015.6 0.0
14/02:30pm 10.7 0.2 3.7 62 3.1 W 48 65 26 35 1015.5 1015.6 0.0
14/02:01pm 10.3 0.1 3.3 62 3.1 W 46 65 25 35 1015.5 1015.6 0.0
14/02:00pm 10.2 -0.4 3.3 62 3.0 W 48 65 26 35 1015.5 1015.6 0.0
14/01:30pm 10.9 0.0 3.5 60 3.3 W 50 69 27 37 1015.1 1015.2 0.0
14/01:00pm 11.1 -0.2 3.2 58 3.5 W 52 70 28 38 1014.9 1015.0 0.0
14/12:35pm 11.4 0.8 2.9 56 3.7 W 48 67 26 36 1014.7 1014.8 0.0
14/12:30pm 11.7 0.7 3.2 56 3.7 WSW 50 65 27 35 1014.9 1015.0 0.0
14/12:00pm 10.1 -1.9 3.8 65 2.8 WSW 56 76 30 41 1014.9 1015.0 0.0
14/11:30am 11.7 -0.7 1.6 50 4.3 W 56 80 30 43 1014.6 1014.7 0.0
14/11:08am 10.4 -1.7 3.2 61 3.1 WSW 56 76 30 41 1014.5 1014.6 0.0
14/11:00am 11.2 -0.4 4.0 61 3.2 W 54 70 29 38 1014.6 1014.7 0.0
14/10:34am 11.3 -0.3 4.1 61 3.2 W 54 72 29 39 1014.5 1014.6 0.0
14/10:30am 10.9 -0.1 3.2 59 3.4 W 50 65 27 35 1014.5 1014.6 0.0
14/10:03am 11.0 1.0 4.2 63 3.0 W 46 65 25 35 1014.8 1014.9 0.0
14/10:00am 10.7 0.3 4.2 64 2.9 W 48 65 26 35 1014.8 1014.9 0.0
14/09:30am 11.0 1.4 4.5 64 2.9 W 44 61 24 33 1014.5 1014.6 0.0
14/09:00am 10.2 -0.7 3.7 64 2.9 W 50 72 27 39 1014.5 1014.6 4.6
14/08:30am 10.2 0.1 3.5 63 2.9 W 46 61 25 33 1014.2 1014.3 4.6
14/08:14am 10.1 -0.3 4.0 66 2.7 W 48 67 26 36 1013.9 1014.0 4.6
14/08:00am 9.8 -0.6 4.2 68 2.5 W 48 63 26 34 1013.8 1013.9 4.6
14/07:47am 9.6 -0.5 4.0 68 2.5 W 46 65 25 35 1013.7 1013.8 4.6
14/07:30am 9.3 -0.6 4.7 73 2.1 W 46 57 25 31 1013.8 1013.9 4.6
14/07:00am 8.1 -1.8 4.9 80 1.4 W 46 59 25 32 1013.6 1013.7 4.6
14/06:41am 9.0 -0.3 5.2 77 1.7 W 43 63 23 34 1013.2 1013.3 4.6
14/06:30am 9.2 0.2 4.6 73 2.0 W 41 52 22 28 1012.9 1013.0 4.4
14/06:00am 9.4 0.3 5.9 79 1.6 W 43 61 23 33 1012.5 1012.6 4.4
14/05:31am 9.3 0.2 6.9 85 1.1 W 44 63 24 34 1011.9 1012.0 4.4
14/05:30am 9.3 -0.2 6.9 85 1.1 W 46 63 25 34 1011.9 1012.0 4.4
14/05:00am 8.9 -0.5 7.0 88 0.9 W 46 72 25 39 1011.7 1011.8 4.4
14/04:51am 8.9 -1.2 7.2 89 0.8 W 50 70 27 38 1011.7 1011.8 4.2
14/04:30am 9.0 1.0 7.3 89 0.8 W 39 48 21 26 1011.3 1011.4 3.8
14/04:00am 8.9 -0.8 7.4 90 0.7 W 48 69 26 37 1011.1 1011.2 2.8
14/03:48am 9.0 -2.7 6.4 84 1.2 W 57 78 31 42 1011.2 1011.3 1.6
14/03:47am 9.2 2.1 6.5 83 1.3 WSW 33 78 18 42 1011.2 1011.3 1.2
14/03:30am 10.3 5.8 6.8 79 1.7 NNW 20 28 11 15 1010.7 1010.8 0.0
14/03:00am 10.6 6.2 6.4 75 2.0 N 19 24 10 13 1010.7 1010.8 0.0
14/02:30am 10.8 5.2 5.6 70 2.4 NNW 24 32 13 17 1011.2 1011.3 0.0
14/02:00am 10.3 5.5 5.7 73 2.1 NNW 20 28 11 15 1011.9 1012.0 0.0
14/01:30am 10.2 5.6 5.6 73 2.1 NNW 19 24 10 13 1012.9 1013.0 0.0
14/01:00am 10.7 5.5 5.5 70 2.4 NW 22 30 12 16 1013.4 1013.5 0.0
14/12:30am 10.7 5.9 5.7 71 2.3 NW 20 32 11 17 1013.8 1013.9 0.0
14/12:00am 9.0 5.1 5.4 78 1.6 N 15 20 8 11 1014.2 1014.3 0.0
 
Date/Time
EST
Temp
°C
App
Temp
°C
Dew
Point
Rel
Hum
%
Delta-T
°C
Wind Press
QNH
hPa
Press
MSL
hPa
Rain
since 9 am
mm
Dir
 
Spd
km/h
Gust
km/h
Spd
kts
Gust
kts
13/11:30pm 9.5 5.3 5.5 76 1.8 N 17 28 9 15 1014.5 1014.6 0.0
13/11:00pm 10.4 6.0 6.5 77 1.8 NW 19 26 10 14 1015.0 1015.1 0.0
13/10:30pm 9.7 6.4 6.6 81 1.5 NNW 13 19 7 10 1015.4 1015.5 0.0
13/10:00pm 10.1 5.9 5.5 73 2.1 NNW 17 20 9 11 1015.6 1015.7 0.0
13/09:30pm 10.2 5.4 5.6 73 2.1 NNW 20 28 11 15 1015.8 1015.9 0.0
13/09:00pm 11.0 6.3 5.1 67 2.7 NW 19 26 10 14 1016.0 1016.1 0.0
13/08:30pm 11.1 6.3 5.4 68 2.6 NW 20 28 11 15 1016.1 1016.2 0.0
13/08:00pm 10.9 6.8 6.1 72 2.2 NW 17 22 9 12 1016.5 1016.6 0.0
13/07:30pm 10.9 6.4 5.9 71 2.3 WNW 19 24 10 13 1016.5 1016.6 0.0
13/07:00pm 11.2 5.4 6.1 71 2.4 WNW 26 35 14 19 1016.4 1016.5 0.0
13/06:30pm 10.9 6.4 6.8 76 1.9 WNW 20 28 11 15 1016.6 1016.7 0.0
13/06:00pm 11.5 4.5 6.2 70 2.5 W 32 39 17 21 1016.5 1016.6 0.0
13/05:30pm 11.4 5.7 6.7 73 2.2 WNW 26 33 14 18 1016.5 1016.6 0.0
13/05:00pm 12.1 7.9 8.4 78 1.8 W 20 30 11 16 1016.8 1016.9 0.0
13/04:30pm 12.6 8.5 7.7 72 2.4 W 19 22 10 12 1016.8 1016.9 0.0
13/04:00pm 13.3 9.0 8.0 70 2.6 W 20 32 11 17 1016.8 1016.9 0.0
13/03:30pm 11.8 6.0 8.1 78 1.8 WSW 28 35 15 19 1016.7 1016.8 0.0
13/03:00pm 12.5 5.9 8.4 76 2.0 W 33 39 18 21 1016.8 1016.9 0.0
13/02:30pm 12.1 5.4 8.0 76 2.0 WSW 33 44 18 24 1017.0 1017.1 0.0
13/02:00pm 13.1 6.4 8.0 71 2.5 W 33 48 18 26 1017.0 1017.1 0.0
13/01:30pm 13.2 4.8 7.2 67 2.9 W 41 50 22 27 1017.1 1017.2 0.0

Other Formats:

Comma delimited format used in spreadsheet applications
http://www.bom.gov.au/fwo/IDT60801/IDT60801.95967.axf

JavaScript Object Notation format (JSON) in row-major order
http://www.bom.gov.au/fwo/IDT60801/IDT60801.95967.json